Time;durP1;ratioP1;P1;durP2;ratioP2;P2;SDS_P1;SDS_P2;PMS_P1;PMS_P2;Temp;Humidity;BMP_temperature;BMP_pressure;BME280_temperature;BME280_humidity;BME280_pressure;Samples;Min_cycle;Max_cycle;Signal;HPM_P1;HPM_P2
2021/01/02 00:12:45;;;;;;;9.68;6.97;;;;;;;18.76;35.97;100553.81;31102082;28;20759;-64
2021/01/02 00:28:11;;;;;;;9.73;7.10;;;;;;;18.63;36.35;100552.25;31041243;28;20037;-64
2021/01/02 00:43:13;;;;;;;8.80;6.30;;;;;;;18.58;36.12;100551.84;31092002;28;20034;-64
2021/01/02 00:58:20;;;;;;;8.82;6.10;;;;;;;18.60;36.03;100555.19;31083543;28;20551;-63
2021/01/02 01:13:22;;;;;;;7.13;5.78;;;;;;;18.70;36.75;100563.09;31103748;28;20100;-63
2021/01/02 01:28:26;;;;;;;8.02;6.00;;;;;;;18.77;36.86;100553.72;31091365;28;20037;-64
2021/01/02 01:43:46;;;;;;;4.70;3.05;;;;;;;16.42;27.92;100572.88;31053240;28;20042;-65
2021/01/02 01:58:49;;;;;;;6.25;3.80;;;;;;;14.18;39.02;100584.59;31014773;28;20496;-63
2021/01/02 02:13:50;;;;;;;5.38;3.53;;;;;;;15.84;37.64;100578.13;31045067;28;20111;-63
2021/01/02 02:29:22;;;;;;;7.22;3.42;;;;;;;16.57;37.06;100576.13;31015577;28;20507;-62
2021/01/02 02:44:37;;;;;;;5.93;3.10;;;;;;;16.87;36.71;100588.66;31022606;28;20571;-63
2021/01/02 02:59:38;;;;;;;4.85;2.85;;;;;;;17.02;36.69;100597.16;31020280;28;20072;-63
2021/01/02 03:14:39;;;;;;;5.43;3.03;;;;;;;17.12;36.51;100605.94;31054550;28;20044;-63
2021/01/02 03:29:40;;;;;;;4.70;3.17;;;;;;;17.18;36.68;100617.78;31039735;28;20304;-63
2021/01/02 03:44:40;;;;;;;4.93;3.10;;;;;;;17.17;36.51;100632.66;31042750;28;20293;-65
2021/01/02 03:59:41;;;;;;;4.67;3.13;;;;;;;17.18;36.76;100646.66;31051017;28;20301;-61
2021/01/02 04:14:42;;;;;;;4.53;3.00;;;;;;;17.13;36.78;100651.41;31030535;28;20300;-61
2021/01/02 04:29:43;;;;;;;4.60;3.30;;;;;;;17.07;36.93;100649.31;31024766;28;20304;-63
2021/01/02 04:44:44;;;;;;;5.53;2.90;;;;;;;17.02;37.12;100667.19;31023765;28;20640;-63
2021/01/02 04:59:49;;;;;;;4.33;3.03;;;;;;;16.98;37.34;100671.03;31060755;28;20305;-60
2021/01/02 05:15:01;;;;;;;4.25;3.10;;;;;;;16.93;37.39;100663.50;30994476;28;20344;-62
2021/01/02 05:30:11;;;;;;;4.40;2.88;;;;;;;16.91;37.52;100673.28;31017921;28;20489;-61
2021/01/02 05:45:13;;;;;;;5.25;3.13;;;;;;;16.88;37.67;100689.25;31008353;28;20041;-63
2021/01/02 06:00:15;;;;;;;4.40;2.65;;;;;;;16.88;37.69;100697.13;31006495;28;20050;-63
2021/01/02 06:15:16;;;;;;;4.22;2.97;;;;;;;16.84;37.59;100699.16;31068718;28;20099;-63
2021/01/02 06:30:17;;;;;;;5.20;3.22;;;;;;;16.81;37.66;100715.13;31032110;28;20100;-63
2021/01/02 06:45:42;;;;;;;5.03;3.15;;;;;;;16.77;37.85;100729.44;31009594;28;20100;-63
2021/01/02 07:00:43;;;;;;;4.82;2.97;;;;;;;16.73;37.78;100738.50;31011735;28;20035;-63
2021/01/02 07:15:44;;;;;;;4.53;3.13;;;;;;;16.70;37.97;100767.59;31004927;28;20030;-63
2021/01/02 07:30:45;;;;;;;6.67;3.10;;;;;;;16.64;37.87;100774.13;31029772;28;20045;-60
2021/01/02 07:45:46;;;;;;;4.80;3.00;;;;;;;16.57;38.02;100796.53;31075118;28;20320;-62
2021/01/02 08:00:47;;;;;;;3.70;2.83;;;;;;;16.57;37.95;100806.19;31052589;28;20032;-62
2021/01/02 08:15:51;;;;;;;4.68;3.25;;;;;;;16.53;37.90;100826.56;31081071;28;20041;-64
2021/01/02 08:30:52;;;;;;;4.40;3.03;;;;;;;16.50;38.00;100832.06;31070149;28;20057;-64
2021/01/02 08:46:00;;;;;;;4.60;3.22;;;;;;;16.51;37.94;100852.06;31062482;28;20039;-64
2021/01/02 09:01:01;;;;;;;4.85;3.10;;;;;;;16.53;37.80;100858.88;31053636;28;20030;-64
2021/01/02 09:16:13;;;;;;;4.50;3.40;;;;;;;16.61;37.86;100865.38;31112189;28;20026;-64
2021/01/02 09:31:14;;;;;;;4.68;3.30;;;;;;;16.69;37.45;100879.59;31062768;28;20356;-65
2021/01/02 09:46:18;;;;;;;5.00;3.47;;;;;;;16.74;37.34;100893.25;31027854;28;20043;-64
2021/01/02 10:01:19;;;;;;;6.18;3.95;;;;;;;16.73;37.10;100891.56;31022714;28;20348;-65
2021/01/02 10:16:20;;;;;;;5.10;3.55;;;;;;;16.72;37.66;100892.53;31041935;28;20045;-65
2021/01/02 10:31:21;;;;;;;5.03;3.50;;;;;;;16.75;37.12;100880.97;31025793;28;20056;-65
2021/01/02 10:46:22;;;;;;;10.93;8.85;;;;;;;16.41;31.53;100858.97;31072658;28;20327;-66
2021/01/02 11:01:23;;;;;;;14.18;10.70;;;;;;;10.87;40.53;100865.31;31083144;28;20042;-65
2021/01/02 11:16:36;;;;;;;9.65;6.53;;;;;;;12.04;42.83;100856.75;31061113;28;20447;-65
2021/01/02 11:31:37;;;;;;;7.30;4.75;;;;;;;14.50;39.50;100843.09;31088495;28;20042;-65
2021/01/02 11:46:42;;;;;;;5.70;4.07;;;;;;;16.01;37.50;100835.56;31060023;28;20090;-66
2021/01/02 12:01:45;;;;;;;6.18;4.13;;;;;;;16.87;36.51;100835.44;31063660;28;20042;-66
2021/01/02 12:16:48;;;;;;;5.63;3.67;;;;;;;17.50;35.87;100838.56;31076932;28;20459;-65
2021/01/02 12:31:51;;;;;;;5.38;3.65;;;;;;;17.97;35.44;100838.44;31061669;28;20038;-67
2021/01/02 12:46:54;;;;;;;5.03;4.00;;;;;;;18.13;35.33;100852.03;31095312;28;20057;-64
2021/01/02 13:01:57;;;;;;;5.15;3.95;;;;;;;18.34;37.03;100859.16;31083560;28;20046;-62
2021/01/02 13:17:00;;;;;;;7.00;4.45;;;;;;;18.50;39.61;100871.94;31074182;28;20046;-64
2021/01/02 13:32:02;;;;;;;10.63;4.35;;;;;;;18.67;40.62;100874.03;31078117;28;20041;-65
2021/01/02 13:47:06;;;;;;;9.10;4.50;;;;;;;18.79;40.42;100880.94;31062227;28;20105;-66
2021/01/02 14:02:07;;;;;;;8.68;4.40;;;;;;;18.91;40.17;100897.53;31078880;28;20407;-65
2021/01/02 14:17:08;;;;;;;8.38;4.70;;;;;;;19.03;38.75;100896.53;31076320;28;20478;-66
2021/01/02 14:32:09;;;;;;;18.47;9.80;;;;;;;18.45;33.95;100900.41;31126344;28;20049;-65
2021/01/02 14:47:10;;;;;;;8.40;6.00;;;;;;;18.67;34.90;100921.41;31217837;28;20299;-63
2021/01/02 15:02:11;;;;;;;11.53;7.53;;;;;;;18.66;34.50;100922.38;31221254;28;20288;-63
2021/01/02 15:17:12;;;;;;;12.77;8.85;;;;;;;18.55;34.51;100936.38;31209631;28;20342;-63
2021/01/02 15:32:14;;;;;;;11.07;8.67;;;;;;;18.46;33.68;100936.28;31221682;28;20060;-62
2021/01/02 15:47:17;;;;;;;13.38;7.55;;;;;;;18.49;36.59;100947.44;31228995;28;20354;-61
2021/01/02 16:02:18;;;;;;;12.15;8.30;;;;;;;18.49;36.60;100934.25;31237136;28;20033;-64
2021/01/02 16:17:19;;;;;;;13.37;9.47;;;;;;;18.50;36.96;100935.09;31256982;28;20030;-63
2021/01/02 16:32:22;;;;;;;30.25;23.83;;;;;;;11.94;40.81;100950.19;31227114;28;20280;-62
2021/01/02 16:47:24;;;;;;;26.83;20.60;;;;;;;9.92;46.07;100965.78;31177494;28;20046;-64
2021/01/02 17:02:25;;;;;;;18.73;13.57;;;;;;;13.02;43.44;100967.84;31193531;28;20029;-63
2021/01/02 17:17:26;;;;;;;14.93;11.68;;;;;;;15.26;39.36;100969.94;31237899;28;20406;-63
2021/01/02 17:32:27;;;;;;;14.10;10.50;;;;;;;16.56;37.65;100978.56;31225940;28;20083;-61
2021/01/02 17:47:29;;;;;;;16.95;12.32;;;;;;;17.35;36.22;100977.19;31214711;28;20042;-64
2021/01/02 18:02:30;;;;;;;16.42;11.90;;;;;;;17.91;35.50;100973.03;31182086;28;20368;-63
2021/01/02 18:17:30;;;;;;;18.70;14.98;;;;;;;17.72;34.98;100974.41;31182174;28;20510;-66
2021/01/02 18:32:31;;;;;;;16.20;12.88;;;;;;;18.37;34.44;100990.50;31200982;28;20036;-66
2021/01/02 18:47:34;;;;;;;13.55;11.30;;;;;;;18.74;34.56;100998.94;31190433;28;20411;-62
2021/01/02 19:02:35;;;;;;;15.77;11.75;;;;;;;18.96;33.34;100999.88;31220147;28;20029;-64
2021/01/02 19:17:36;;;;;;;16.98;12.65;;;;;;;19.11;32.92;101009.19;31200433;28;20045;-63
2021/01/02 19:32:37;;;;;;;16.50;11.95;;;;;;;19.26;35.34;100999.16;31228813;28;20383;-66
2021/01/02 19:47:38;;;;;;;13.75;10.05;;;;;;;19.42;34.97;101012.78;31209904;28;20041;-67
2021/01/02 20:02:39;;;;;;;13.60;10.80;;;;;;;19.56;33.75;101013.41;31246800;28;20021;-67
2021/01/02 20:17:40;;;;;;;12.77;10.37;;;;;;;19.52;32.66;101036.56;31240866;28;20777;-68
2021/01/02 20:32:41;;;;;;;16.17;11.93;;;;;;;19.38;33.46;101040.34;31229454;28;20272;-66
2021/01/02 20:47:42;;;;;;;13.63;10.20;;;;;;;19.65;33.82;101047.78;31238398;28;20650;-65
2021/01/02 21:02:43;;;;;;;12.50;9.93;;;;;;;19.84;33.70;101052.38;31241357;28;20288;-65
2021/01/02 21:17:44;;;;;;;12.57;10.00;;;;;;;19.88;34.08;101061.72;31237576;28;20342;-65
2021/01/02 21:32:45;;;;;;;11.33;9.33;;;;;;;19.86;34.37;101058.34;31198982;28;20288;-64
2021/01/02 21:47:46;;;;;;;11.10;9.30;;;;;;;19.90;34.11;101061.56;31234423;28;20284;-66
2021/01/02 22:02:48;;;;;;;11.35;9.00;;;;;;;20.04;33.76;101053.34;31220369;28;20411;-66
2021/01/02 22:17:49;;;;;;;10.13;8.68;;;;;;;20.05;34.60;101025.97;31234082;28;20037;-67
2021/01/02 22:32:50;;;;;;;11.50;8.90;;;;;;;20.00;35.05;101030.81;31225511;28;20022;-66
2021/01/02 22:47:51;;;;;;;19.00;15.53;;;;;;;16.00;31.62;101041.03;31203004;28;20300;-65
2021/01/02 23:02:52;;;;;;;15.18;11.95;;;;;;;17.45;38.04;101027.25;31230284;28;20304;-65
2021/01/02 23:17:53;;;;;;;14.27;10.73;;;;;;;17.86;34.75;101006.72;31191123;28;20040;-65
2021/01/02 23:32:57;;;;;;;10.93;8.82;;;;;;;18.25;35.50;101020.41;31212711;28;20375;-65
2021/01/02 23:47:58;;;;;;;11.02;8.55;;;;;;;18.48;35.48;101018.59;31201163;28;20502;-67
